Time;durP1;ratioP1;P1;durP2;ratioP2;P2;SDS_P1;SDS_P2;PMS_P1;PMS_P2;Temp;Humidity;BMP_temperature;BMP_pressure;BME280_temperature;BME280_humidity;BME280_pressure;Samples;Min_cycle;Max_cycle;Signal;HPM_P1;HPM_P2
2023/05/19 00:00:36;;;;;;;0.20;0.20;;;;;;;15.12;57.24;102876.66;5042999;28;20543;-63
2023/05/19 00:03:02;;;;;;;0.20;0.20;;;;;;;15.52;55.53;102878.41;5044843;28;20083;-66
2023/05/19 00:05:29;;;;;;;0.10;0.10;;;;;;;15.64;55.94;102868.63;5030021;28;20054;-65
2023/05/19 00:07:58;;;;;;;0.10;0.10;;;;;;;15.82;55.31;102890.50;5020988;28;20041;-63
2023/05/19 00:10:24;;;;;;;0.28;0.28;;;;;;;15.34;56.72;102880.84;5023131;28;20042;-62
2023/05/19 00:12:50;;;;;;;0.20;0.20;;;;;;;15.62;55.62;102881.53;5022281;28;20116;-63
2023/05/19 00:15:15;;;;;;;0.30;0.30;;;;;;;15.41;56.38;102887.13;5021354;28;20026;-64
2023/05/19 00:17:41;;;;;;;0.20;0.20;;;;;;;15.67;55.84;102882.56;5022451;28;20118;-64
2023/05/19 00:20:07;;;;;;;0.15;0.15;;;;;;;15.44;56.75;102875.91;5021858;28;20034;-63
2023/05/19 00:22:33;;;;;;;0.10;0.10;;;;;;;15.48;56.71;102886.13;5022935;28;20091;-66
2023/05/19 00:24:58;;;;;;;0.10;0.10;;;;;;;15.63;56.40;102877.78;5020165;28;20477;-65
2023/05/19 00:27:23;;;;;;;0.20;0.20;;;;;;;15.48;56.47;102879.88;5021152;28;20030;-64
2023/05/19 00:29:49;;;;;;;0.20;0.20;;;;;;;15.24;57.41;102880.44;5022183;28;20087;-62
2023/05/19 00:32:14;;;;;;;0.17;0.17;;;;;;;15.49;56.76;102876.09;5022919;28;20521;-64
2023/05/19 00:34:40;;;;;;;0.10;0.10;;;;;;;15.19;57.75;102869.38;5023369;28;20045;-64
2023/05/19 00:37:05;;;;;;;0.10;0.10;;;;;;;15.28;57.47;102870.84;5021850;28;20056;-64
2023/05/19 00:39:31;;;;;;;0.30;0.30;;;;;;;15.74;56.19;102864.41;5022438;28;20036;-65
2023/05/19 00:41:56;;;;;;;0.20;0.20;;;;;;;15.17;57.82;102861.47;5021204;28;20029;-65
2023/05/19 00:44:21;;;;;;;0.20;0.20;;;;;;;15.00;58.57;102860.19;5022866;28;20095;-63
2023/05/19 00:46:47;;;;;;;0.30;0.30;;;;;;;15.29;57.45;102859.00;5023333;28;20462;-64
2023/05/19 00:49:12;;;;;;;0.20;0.20;;;;;;;15.63;56.86;102858.81;5002745;28;20037;-65
2023/05/19 00:51:39;;;;;;;0.28;0.28;;;;;;;15.60;56.83;102857.38;5024590;28;20025;-63
2023/05/19 00:54:04;;;;;;;0.20;0.20;;;;;;;15.65;56.35;102862.13;5021813;28;20029;-63
2023/05/19 00:56:30;;;;;;;0.20;0.20;;;;;;;15.46;57.68;102860.28;5022680;28;20420;-63
2023/05/19 00:58:57;;;;;;;0.20;0.20;;;;;;;15.35;57.83;102856.25;5025470;28;20030;-63
2023/05/19 01:01:22;;;;;;;0.17;0.17;;;;;;;15.49;57.25;102855.25;5021099;28;20079;-64
2023/05/19 01:03:48;;;;;;;0.20;0.20;;;;;;;15.66;56.92;102845.66;5023185;28;20040;-64
2023/05/19 01:06:14;;;;;;;0.10;0.10;;;;;;;15.61;56.73;102848.19;5030557;28;20056;-63
2023/05/19 01:08:39;;;;;;;0.13;0.13;;;;;;;15.36;57.74;102846.28;5033155;28;20698;-62
2023/05/19 01:11:05;;;;;;;0.30;0.30;;;;;;;15.23;58.44;102847.13;5033271;28;20040;-66
2023/05/19 01:13:32;;;;;;;0.20;0.20;;;;;;;15.35;57.41;102845.44;5032817;28;20037;-63
2023/05/19 01:16:18;;;;;;;0.20;0.20;;;;;;;15.31;57.70;102846.88;5033280;28;20614;-64
2023/05/19 01:18:48;;;;;;;0.20;0.20;;;;;;;15.54;57.39;102849.22;5033080;28;20038;-63
2023/05/19 01:21:35;;;;;;;0.20;0.20;;;;;;;15.26;58.58;102848.56;5033741;28;20034;-62
2023/05/19 01:24:38;;;;;;;0.20;0.20;;;;;;;15.65;57.55;102849.44;5033145;28;20115;-64
2023/05/19 01:27:34;;;;;;;0.22;0.22;;;;;;;15.51;57.44;102842.34;5032910;28;20041;-64
2023/05/19 01:30:18;;;;;;;0.10;0.10;;;;;;;15.43;58.45;102847.97;5033094;28;20053;-65
2023/05/19 01:32:46;;;;;;;0.10;0.10;;;;;;;15.34;58.30;102838.34;5017199;28;20030;-63
2023/05/19 01:35:15;;;;;;;0.15;0.15;;;;;;;15.09;59.63;102831.88;5032835;28;20029;-64
2023/05/19 01:37:41;;;;;;;0.10;0.10;;;;;;;15.17;59.23;102841.69;5032722;28;20045;-64
2023/05/19 01:40:07;;;;;;;0.13;0.13;;;;;;;15.30;58.92;102838.97;5033025;28;20473;-65
2023/05/19 01:42:36;;;;;;;0.15;0.15;;;;;;;14.70;59.40;102835.31;5032554;28;20158;-63
2023/05/19 01:45:04;;;;;;;0.10;0.10;;;;;;;15.27;58.63;102839.41;5033104;28;20099;-63
2023/05/19 01:47:31;;;;;;;0.20;0.20;;;;;;;15.48;57.57;102840.06;5032675;28;20041;-64
2023/05/19 01:49:56;;;;;;;0.10;0.10;;;;;;;15.21;59.07;102832.94;5032336;28;20402;-63
2023/05/19 01:52:22;;;;;;;0.20;0.20;;;;;;;15.35;58.61;102828.38;5032457;28;20033;-63
2023/05/19 01:54:47;;;;;;;0.20;0.20;;;;;;;15.09;59.32;102837.31;5038104;28;20653;-64
2023/05/19 01:57:25;;;;;;;0.10;0.10;;;;;;;15.42;58.25;102826.50;5032727;28;20484;-66
2023/05/19 02:00:10;;;;;;;0.10;0.10;;;;;;;15.20;59.92;102825.84;5032676;28;20049;-63
2023/05/19 02:03:00;;;;;;;0.30;0.30;;;;;;;15.21;60.30;102822.09;5032320;28;20038;-65
2023/05/19 02:05:46;;;;;;;0.10;0.10;;;;;;;14.83;60.13;102823.69;5050596;28;20489;-63
2023/05/19 02:08:43;;;;;;;0.20;0.20;;;;;;;15.28;59.47;102824.81;5052041;28;20078;-63
2023/05/19 02:11:37;;;;;;;0.20;0.20;;;;;;;15.21;60.09;102827.53;5054817;28;20475;-65
2023/05/19 02:14:19;;;;;;;0.10;0.10;;;;;;;15.17;60.05;102833.56;5051942;28;20040;-66
2023/05/19 02:16:47;;;;;;;0.17;0.17;;;;;;;15.51;58.45;102823.38;5035064;28;20037;-65
2023/05/19 02:19:25;;;;;;;0.20;0.20;;;;;;;15.46;58.46;102828.59;5052169;28;20051;-65
2023/05/19 02:21:51;;;;;;;0.20;0.20;;;;;;;15.41;58.41;102825.63;5051746;28;20382;-64
2023/05/19 02:24:18;;;;;;;0.10;0.10;;;;;;;15.24;59.08;102821.69;5052721;28;20033;-63
2023/05/19 02:26:44;;;;;;;0.20;0.20;;;;;;;14.93;60.17;102822.28;5051860;28;20478;-63
2023/05/19 02:29:10;;;;;;;0.10;0.10;;;;;;;14.86;59.79;102823.28;5051772;28;20037;-64
2023/05/19 02:31:35;;;;;;;0.10;0.10;;;;;;;15.27;59.00;102823.97;5051699;28;20123;-64
2023/05/19 02:34:00;;;;;;;0.13;0.13;;;;;;;15.02;59.50;102819.38;5052221;28;20051;-63
2023/05/19 02:36:27;;;;;;;0.15;0.15;;;;;;;14.71;60.85;102818.06;5051513;28;20374;-63
2023/05/19 02:38:52;;;;;;;0.30;0.30;;;;;;;15.06;59.73;102812.47;5051387;28;20048;-63
2023/05/19 02:41:17;;;;;;;0.28;0.28;;;;;;;14.63;61.27;102814.69;5051464;28;20524;-64
2023/05/19 02:43:43;;;;;;;0.28;0.28;;;;;;;14.64;61.38;102811.78;5051720;28;20037;-62
2023/05/19 02:46:08;;;;;;;0.10;0.10;;;;;;;15.13;59.89;102807.94;5051318;28;20611;-62
2023/05/19 02:48:34;;;;;;;0.15;0.15;;;;;;;15.13;58.75;102816.88;5050795;28;20029;-63
2023/05/19 02:50:59;;;;;;;0.30;0.30;;;;;;;15.12;59.29;102806.25;5050243;28;20029;-63
2023/05/19 02:53:25;;;;;;;0.10;0.10;;;;;;;14.76;60.81;102806.63;5032889;28;20039;-65
2023/05/19 02:55:50;;;;;;;0.30;0.30;;;;;;;15.18;59.18;102800.00;5050544;28;20037;-62
2023/05/19 02:58:15;;;;;;;0.20;0.20;;;;;;;15.03;59.61;102799.38;5051170;28;20062;-62
2023/05/19 03:00:43;;;;;;;0.25;0.25;;;;;;;15.00;59.55;102805.22;5050600;28;20451;-64
2023/05/19 03:03:09;;;;;;;0.20;0.20;;;;;;;15.11;59.10;102802.72;5050611;28;20044;-63
2023/05/19 03:05:35;;;;;;;0.20;0.20;;;;;;;15.06;59.61;102797.06;5057130;28;20051;-63
2023/05/19 03:08:02;;;;;;;0.20;0.20;;;;;;;15.01;59.63;102793.34;5050858;28;20032;-62
2023/05/19 03:10:27;;;;;;;0.30;0.30;;;;;;;14.41;61.50;102797.75;5050126;28;20044;-63
2023/05/19 03:12:53;;;;;;;0.10;0.10;;;;;;;14.80;60.55;102797.88;5051015;28;20021;-64
2023/05/19 03:15:19;;;;;;;0.13;0.13;;;;;;;14.94;60.26;102794.16;5050881;28;20404;-64
2023/05/19 03:17:45;;;;;;;0.15;0.15;;;;;;;14.73;60.55;102798.91;5065926;28;20045;-64
2023/05/19 03:20:10;;;;;;;0.20;0.20;;;;;;;14.68;61.01;102799.50;5050318;28;20067;-64
2023/05/19 03:22:35;;;;;;;0.20;0.20;;;;;;;14.97;59.62;102801.03;5050433;28;20029;-63
2023/05/19 03:25:02;;;;;;;0.20;0.20;;;;;;;14.71;60.34;102799.13;5052135;28;20052;-63
2023/05/19 03:27:28;;;;;;;0.20;0.20;;;;;;;14.79;60.34;102793.50;5050263;28;20075;-64
2023/05/19 03:29:53;;;;;;;0.22;0.22;;;;;;;14.98;59.81;102791.06;5050406;28;20564;-65
2023/05/19 03:32:18;;;;;;;0.20;0.20;;;;;;;14.90;60.37;102798.31;5050607;28;20037;-64
2023/05/19 03:34:44;;;;;;;0.30;0.30;;;;;;;14.89;60.09;102796.66;5050420;28;20032;-65
2023/05/19 03:37:09;;;;;;;0.15;0.15;;;;;;;14.82;60.34;102790.38;5050959;28;20103;-64
2023/05/19 03:39:35;;;;;;;0.30;0.30;;;;;;;14.85;60.86;102795.41;5050275;28;20496;-64
2023/05/19 03:42:00;;;;;;;0.30;0.30;;;;;;;14.81;60.21;102801.41;5050491;28;20041;-63
2023/05/19 03:44:26;;;;;;;0.10;0.10;;;;;;;14.90;60.54;102801.03;5050311;28;20044;-63
2023/05/19 03:46:51;;;;;;;0.20;0.20;;;;;;;14.93;59.81;102800.63;5049993;28;20068;-64
2023/05/19 03:49:16;;;;;;;0.10;0.10;;;;;;;14.96;59.30;102802.91;5050642;28;20033;-63
2023/05/19 03:51:43;;;;;;;0.20;0.20;;;;;;;14.94;59.74;102802.28;5049922;28;20068;-64
2023/05/19 03:54:08;;;;;;;0.20;0.20;;;;;;;14.83;59.80;102802.06;5050316;28;20128;-65
2023/05/19 03:56:38;;;;;;;0.10;0.10;;;;;;;14.81;60.61;102796.00;5049650;28;20513;-64
2023/05/19 03:59:05;;;;;;;0.10;0.10;;;;;;;14.86;60.60;102804.34;5049868;28;20033;-65
2023/05/19 04:01:30;;;;;;;0.20;0.20;;;;;;;14.90;60.31;102805.59;5050045;28;20025;-66
2023/05/19 04:03:55;;;;;;;0.15;0.15;;;;;;;14.78;60.43;102799.13;5054182;28;20031;-64
2023/05/19 04:06:21;;;;;;;0.28;0.28;;;;;;;14.91;60.26;102808.13;5035960;28;20487;-65
2023/05/19 04:08:46;;;;;;;0.20;0.20;;;;;;;14.79;60.75;102806.22;5048810;28;20127;-63
2023/05/19 04:11:11;;;;;;;0.22;0.22;;;;;;;14.98;60.53;102812.72;5049793;28;20138;-66
2023/05/19 04:13:37;;;;;;;0.30;0.30;;;;;;;14.94;60.25;102813.09;5038877;28;20040;-65
2023/05/19 04:16:02;;;;;;;0.20;0.20;;;;;;;15.28;59.08;102814.81;5045251;28;20035;-66
2023/05/19 04:18:28;;;;;;;0.20;0.20;;;;;;;15.36;58.98;102813.75;5033091;28;20686;-63
2023/05/19 04:20:53;;;;;;;0.20;0.20;;;;;;;15.11;60.22;102812.72;5044462;28;20132;-64
2023/05/19 04:23:18;;;;;;;0.20;0.20;;;;;;;15.26;59.40;102818.75;5038459;28;20231;-64
2023/05/19 04:25:44;;;;;;;0.20;0.20;;;;;;;15.23;59.46;102827.31;5049511;28;20040;-66
2023/05/19 04:28:09;;;;;;;0.20;0.20;;;;;;;15.33;58.91;102825.03;5034583;28;20064;-64
2023/05/19 04:30:35;;;;;;;0.10;0.10;;;;;;;15.35;59.22;102821.03;5031764;28;20037;-64
2023/05/19 04:33:02;;;;;;;0.20;0.20;;;;;;;15.53;58.82;102812.31;5043504;28;20140;-65
2023/05/19 04:35:27;;;;;;;0.20;0.20;;;;;;;15.24;59.42;102815.41;5039317;28;20068;-63
2023/05/19 04:37:53;;;;;;;0.20;0.20;;;;;;;15.14;60.22;102812.28;5036441;28;20033;-63
2023/05/19 04:40:19;;;;;;;0.20;0.20;;;;;;;15.31;59.64;102811.66;5047329;28;20116;-64
2023/05/19 04:42:45;;;;;;;0.20;0.20;;;;;;;15.35;59.50;102806.69;5038522;28;20110;-65
2023/05/19 04:45:13;;;;;;;0.17;0.17;;;;;;;15.42;58.94;102808.38;5053815;28;20037;-64
2023/05/19 04:47:40;;;;;;;0.10;0.10;;;;;;;15.44;58.59;102805.47;5064259;28;20370;-64
2023/05/19 04:50:06;;;;;;;0.20;0.20;;;;;;;15.45;59.12;102805.25;5058517;28;20606;-64
2023/05/19 04:52:32;;;;;;;0.20;0.20;;;;;;;15.38;59.97;102795.41;5070017;28;20024;-63
2023/05/19 04:54:57;;;;;;;0.10;0.10;;;;;;;15.54;59.14;102801.28;5055494;28;20048;-63
2023/05/19 04:57:23;;;;;;;0.20;0.20;;;;;;;15.48;59.46;102806.72;5018703;28;20357;-64
2023/05/19 04:59:48;;;;;;;0.20;0.20;;;;;;;15.68;58.83;102811.03;5045340;28;20037;-64
2023/05/19 05:02:14;;;;;;;0.20;0.20;;;;;;;15.64;58.58;102814.41;5053366;28;20045;-64
2023/05/19 05:04:42;;;;;;;0.20;0.20;;;;;;;15.60;59.32;102815.88;5059775;28;20479;-64
2023/05/19 05:07:08;;;;;;;0.20;0.20;;;;;;;15.86;58.04;102817.72;5068951;28;20124;-64
2023/05/19 05:09:34;;;;;;;0.30;0.30;;;;;;;15.89;58.21;102815.41;5055468;28;20041;-64
2023/05/19 05:12:01;;;;;;;0.20;0.20;;;;;;;15.93;58.64;102813.94;5052850;28;20137;-64
2023/05/19 05:14:26;;;;;;;0.30;0.30;;;;;;;16.08;57.76;102819.94;5053075;28;20029;-63
2023/05/19 05:16:52;;;;;;;0.30;0.30;;;;;;;16.08;58.19;102819.13;5053453;28;20047;-63
2023/05/19 05:19:18;;;;;;;0.10;0.10;;;;;;;16.06;57.89;102822.03;5052933;28;20040;-63
2023/05/19 05:21:44;;;;;;;0.20;0.20;;;;;;;16.18;57.68;102824.91;5052299;28;20037;-65
2023/05/19 05:24:10;;;;;;;0.20;0.20;;;;;;;16.30;57.69;102823.19;5052410;28;20041;-64
2023/05/19 05:26:36;;;;;;;0.13;0.13;;;;;;;16.35;57.37;102820.69;5057844;28;20504;-63
2023/05/19 05:29:02;;;;;;;0.10;0.10;;;;;;;16.43;56.93;102813.13;5066076;28;20043;-63
2023/05/19 05:31:28;;;;;;;0.20;0.20;;;;;;;16.50;56.74;102811.25;5064144;28;20056;-62
2023/05/19 05:33:54;;;;;;;0.20;0.20;;;;;;;16.64;56.52;102821.00;5042064;28;20091;-64
2023/05/19 05:36:19;;;;;;;0.15;0.15;;;;;;;16.52;56.93;102816.47;5061311;28;20758;-62
2023/05/19 05:38:44;;;;;;;0.20;0.20;;;;;;;16.66;56.09;102821.63;5052439;28;20116;-64
2023/05/19 05:41:10;;;;;;;0.10;0.10;;;;;;;16.89;55.80;102829.19;5050167;28;20040;-64
2023/05/19 05:43:35;;;;;;;0.20;0.20;;;;;;;16.90;55.36;102820.00;5062843;28;20024;-63
2023/05/19 05:46:01;;;;;;;0.10;0.10;;;;;;;16.80;55.64;102826.97;5039071;28;20101;-64
2023/05/19 05:48:26;;;;;;;0.30;0.30;;;;;;;16.83;56.04;102824.63;5062690;28;20127;-63
2023/05/19 05:50:53;;;;;;;0.20;0.20;;;;;;;16.91;55.56;102823.53;5051183;28;20037;-62
2023/05/19 05:53:20;;;;;;;0.10;0.10;;;;;;;16.88;55.54;102824.00;5050260;28;20037;-64
2023/05/19 05:55:46;;;;;;;0.20;0.20;;;;;;;17.02;55.61;102823.66;5060609;28;20033;-65
2023/05/19 05:58:13;;;;;;;0.20;0.20;;;;;;;17.02;55.08;102825.56;5042789;28;20084;-63
2023/05/19 06:00:42;;;;;;;0.20;0.20;;;;;;;16.95;55.06;102822.06;5063890;28;20051;-64
2023/05/19 06:03:08;;;;;;;0.10;0.10;;;;;;;16.96;54.71;102821.81;5047493;28;20037;-63
2023/05/19 06:05:34;;;;;;;0.20;0.20;;;;;;;17.45;53.57;102812.91;5041218;28;20470;-64
2023/05/19 06:07:59;;;;;;;0.10;0.10;;;;;;;17.46;53.16;102818.09;5040280;28;20104;-63
2023/05/19 06:10:25;;;;;;;0.17;0.17;;;;;;;17.53;53.34;102820.81;5042235;28;20029;-63
2023/05/19 06:12:50;;;;;;;0.10;0.10;;;;;;;17.13;54.29;102817.53;5037256;28;20416;-62
2023/05/19 06:15:15;;;;;;;0.20;0.20;;;;;;;17.43;53.05;102821.25;5031995;28;20037;-64
2023/05/19 06:17:41;;;;;;;0.22;0.22;;;;;;;17.64;52.49;102816.50;5031854;28;20041;-63
2023/05/19 06:20:08;;;;;;;0.10;0.10;;;;;;;17.88;52.86;102827.34;5031679;28;20376;-64
2023/05/19 06:22:34;;;;;;;0.30;0.30;;;;;;;17.88;52.58;102827.34;5031789;28;20026;-64
2023/05/19 06:25:00;;;;;;;0.20;0.20;;;;;;;17.62;53.65;102830.34;5032509;28;20457;-63
2023/05/19 06:27:25;;;;;;;0.28;0.28;;;;;;;17.82;52.66;102830.97;5031680;28;20414;-64
2023/05/19 06:29:50;;;;;;;0.10;0.10;;;;;;;18.03;51.91;102821.53;5013880;28;20125;-63
2023/05/19 06:32:16;;;;;;;0.20;0.20;;;;;;;18.00;52.09;102824.72;5032016;28;20378;-64
2023/05/19 06:34:41;;;;;;;0.10;0.10;;;;;;;18.12;51.67;102831.88;5015484;28;20049;-64
2023/05/19 06:37:07;;;;;;;0.20;0.20;;;;;;;17.82;52.55;102833.69;5031817;28;20017;-63
2023/05/19 06:39:32;;;;;;;0.20;0.20;;;;;;;17.79;52.80;102834.13;5031590;28;20069;-63
2023/05/19 06:41:57;;;;;;;0.20;0.20;;;;;;;18.13;52.15;102825.41;5031648;28;20044;-62
2023/05/19 06:44:23;;;;;;;0.30;0.30;;;;;;;18.48;50.79;102827.50;5013596;28;20079;-64
2023/05/19 06:46:48;;;;;;;0.20;0.20;;;;;;;18.12;52.03;102828.34;5031383;28;20187;-63
2023/05/19 06:49:13;;;;;;;0.20;0.20;;;;;;;18.39;51.08;102826.97;5032029;28;20029;-65
2023/05/19 06:51:39;;;;;;;0.20;0.20;;;;;;;18.01;51.64;102832.66;5031195;28;20030;-63
2023/05/19 06:54:04;;;;;;;0.20;0.20;;;;;;;17.48;53.61;102835.06;5031268;28;20056;-62
2023/05/19 06:56:30;;;;;;;0.20;0.20;;;;;;;18.20;51.96;102833.50;5031048;28;20037;-63
2023/05/19 06:58:55;;;;;;;0.10;0.10;;;;;;;18.38;49.99;102838.91;5013240;28;20144;-64
2023/05/19 07:01:20;;;;;;;0.10;0.10;;;;;;;18.59;50.31;102838.47;5013483;28;20500;-63
2023/05/19 07:03:46;;;;;;;0.10;0.10;;;;;;;18.81;50.12;102827.91;5030550;28;20077;-66
2023/05/19 07:06:11;;;;;;;0.10;0.10;;;;;;;19.15;49.03;102835.34;5045698;28;20551;-63
2023/05/19 07:08:37;;;;;;;0.20;0.20;;;;;;;19.25;48.15;102841.06;5050671;28;20048;-64
2023/05/19 07:11:02;;;;;;;0.20;0.20;;;;;;;19.34;48.78;102831.50;5032642;28;20110;-73
2023/05/19 07:13:28;;;;;;;0.17;0.17;;;;;;;19.13;49.65;102824.69;5050877;28;20075;-70
2023/05/19 07:15:56;;;;;;;0.10;0.10;;;;;;;19.16;48.80;102837.84;5051488;28;20047;-72
2023/05/19 07:18:21;;;;;;;0.13;0.13;;;;;;;19.77;46.91;102828.47;5050697;28;20100;-73
2023/05/19 07:20:47;;;;;;;0.20;0.20;;;;;;;19.81;47.09;102835.09;5050584;28;20041;-73
2023/05/19 07:23:12;;;;;;;0.20;0.20;;;;;;;19.86;46.38;102833.31;5050217;28;20041;-73
2023/05/19 07:25:38;;;;;;;0.10;0.10;;;;;;;19.94;46.17;102841.16;5050573;28;20037;-72
2023/05/19 07:28:03;;;;;;;0.20;0.20;;;;;;;20.05;46.24;102840.28;5050381;28;20476;-72
2023/05/19 07:30:29;;;;;;;0.15;0.15;;;;;;;20.19;45.69;102831.84;5049274;28;20036;-71
2023/05/19 07:32:54;;;;;;;0.17;0.17;;;;;;;19.99;45.49;102832.22;5036868;28;20107;-72
2023/05/19 07:35:23;;;;;;;0.20;0.20;;;;;;;20.21;46.22;102829.72;5037137;28;20531;-75
2023/05/19 07:37:50;;;;;;;0.10;0.10;;;;;;;20.46;44.97;102830.28;5049141;28;20500;-72
2023/05/19 07:40:16;;;;;;;0.20;0.20;;;;;;;20.59;43.83;102833.53;5049834;28;20535;-71
2023/05/19 07:42:41;;;;;;;0.20;0.20;;;;;;;20.69;43.90;102825.56;5049233;28;20033;-72
2023/05/19 07:45:07;;;;;;;0.10;0.10;;;;;;;21.07;43.21;102829.56;5049207;28;20037;-72
2023/05/19 07:47:32;;;;;;;0.10;0.10;;;;;;;21.21;42.77;102826.22;5049250;28;20044;-72
2023/05/19 07:49:58;;;;;;;0.10;0.10;;;;;;;21.04;42.59;102828.13;5048941;28;20036;-71
2023/05/19 07:52:23;;;;;;;0.15;0.15;;;;;;;21.26;42.26;102831.81;5048885;28;20106;-73
2023/05/19 07:54:49;;;;;;;0.20;0.20;;;;;;;20.53;44.52;102825.47;5049142;28;20082;-72
2023/05/19 07:57:14;;;;;;;0.10;0.10;;;;;;;20.80;43.25;102826.56;5048979;28;20116;-72
2023/05/19 07:59:40;;;;;;;0.20;0.20;;;;;;;21.40;41.71;102829.56;5049241;28;20033;-73
2023/05/19 08:02:06;;;;;;;0.10;0.10;;;;;;;20.46;42.37;102830.28;5046750;28;20071;-74
2023/05/19 08:04:31;;;;;;;0.10;0.10;;;;;;;21.29;40.40;102825.81;5048529;28;20047;-71
2023/05/19 08:06:57;;;;;;;0.20;0.20;;;;;;;20.70;40.73;102819.00;5049013;28;20021;-70
2023/05/19 08:09:22;;;;;;;0.10;0.10;;;;;;;21.15;40.55;102804.53;5042623;28;20041;-71
2023/05/19 08:11:48;;;;;;;0.10;0.10;;;;;;;20.38;42.94;102803.34;5048862;28;20036;-71
2023/05/19 08:14:14;;;;;;;0.20;0.20;;;;;;;21.43;39.93;102805.28;5030627;28;20048;-74
2023/05/19 08:16:41;;;;;;;0.10;0.10;;;;;;;21.82;38.58;102803.41;5044815;28;20359;-72
2023/05/19 08:19:06;;;;;;;0.10;0.10;;;;;;;21.72;38.73;102804.06;5046642;28;20109;-70
2023/05/19 08:21:35;;;;;;;0.20;0.20;;;;;;;22.12;37.76;102794.78;5048312;28;20048;-71
2023/05/19 08:24:01;;;;;;;0.10;0.10;;;;;;;21.70;39.50;102806.22;5048628;28;20064;-73
2023/05/19 08:26:27;;;;;;;0.20;0.20;;;;;;;22.31;38.57;102793.41;5042141;28;20095;-71
2023/05/19 08:28:52;;;;;;;0.10;0.10;;;;;;;21.71;39.29;102796.97;5048567;28;20045;-71
2023/05/19 08:31:18;;;;;;;0.10;0.10;;;;;;;22.26;38.38;102785.94;5047641;28;20346;-71
2023/05/19 08:33:44;;;;;;;0.20;0.20;;;;;;;22.35;37.62;102789.88;5041830;28;20039;-71
2023/05/19 08:36:10;;;;;;;0.17;0.17;;;;;;;22.01;38.35;102785.63;5039659;28;20091;-71
2023/05/19 08:38:35;;;;;;;0.10;0.10;;;;;;;21.44;39.59;102782.31;5039233;28;20091;-72
2023/05/19 08:41:04;;;;;;;0.10;0.10;;;;;;;21.99;37.63;102776.84;5036444;28;20038;-70
2023/05/19 08:43:30;;;;;;;0.10;0.10;;;;;;;22.60;37.86;102772.94;5037430;28;20092;-75
2023/05/19 08:45:58;;;;;;;0.10;0.10;;;;;;;22.52;38.06;102771.47;5040259;28;20025;-71
2023/05/19 08:48:23;;;;;;;0.10;0.10;;;;;;;22.42;36.50;102765.84;5036760;28;20053;-72
2023/05/19 08:51:21;;;;;;;0.10;0.10;;;;;;;23.00;34.45;102766.97;5037953;28;20443;-71
2023/05/19 08:53:50;;;;;;;0.17;0.17;;;;;;;22.64;35.45;102761.16;5005149;28;20046;-71
2023/05/19 08:56:23;;;;;;;0.15;0.15;;;;;;;23.05;34.29;102759.66;5005287;28;20034;-71
2023/05/19 08:58:50;;;;;;;0.20;0.20;;;;;;;22.91;34.19;102761.16;5005227;28;20060;-71
2023/05/19 09:01:16;;;;;;;0.10;0.10;;;;;;;23.09;34.06;102763.53;5005892;28;20601;-70
2023/05/19 09:03:43;;;;;;;0.10;0.10;;;;;;;23.31;32.78;102755.22;5003714;28;20038;-71
2023/05/19 09:06:11;;;;;;;0.05;0.05;;;;;;;23.48;33.17;102762.19;5002893;28;20054;-70
2023/05/19 09:08:37;;;;;;;0.10;0.10;;;;;;;24.24;31.80;102763.41;5005218;28;20445;-73
2023/05/19 09:11:02;;;;;;;0.10;0.10;;;;;;;23.60;32.04;102747.44;5005287;28;20625;-70
2023/05/19 09:13:28;;;;;;;0.00;0.00;;;;;;;23.49;32.73;102755.59;4987037;28;20106;-71
2023/05/19 09:15:56;;;;;;;0.10;0.10;;;;;;;23.76;31.89;102751.91;5005740;28;20033;-69
2023/05/19 09:18:24;;;;;;;0.10;0.10;;;;;;;23.79;31.19;102745.88;5004916;28;20045;-71
2023/05/19 09:20:50;;;;;;;0.10;0.10;;;;;;;24.25;30.84;102750.50;5005144;28;20048;-71
2023/05/19 09:23:17;;;;;;;0.10;0.10;;;;;;;24.30;31.13;102745.84;5004823;28;20085;-70
2023/05/19 09:25:49;;;;;;;0.10;0.10;;;;;;;24.94;29.67;102743.47;5000159;28;20479;-70
2023/05/19 09:28:30;;;;;;;0.00;0.00;;;;;;;24.99;29.21;102738.00;4987761;28;20034;-70
2023/05/19 09:31:09;;;;;;;;;;;;;;;25.00;28.79;102736.06;5031087;28;20120;-70
2023/05/19 09:33:39;;;;;;;0.10;0.10;;;;;;;24.12;29.30;102735.34;5037267;28;19924;-69
2023/05/19 09:36:07;;;;;;;0.10;0.10;;;;;;;24.82;28.35;102726.44;5042946;28;20058;-69
2023/05/19 09:38:33;;;;;;;0.00;0.00;;;;;;;24.45;29.36;102720.34;5042895;28;20037;-70
2023/05/19 09:41:00;;;;;;;0.10;0.10;;;;;;;25.08;29.61;102730.81;5044970;28;20109;-69
2023/05/19 09:43:31;;;;;;;0.00;0.00;;;;;;;24.24;28.32;102726.84;5042412;28;20041;-70
2023/05/19 09:46:03;;;;;;;0.00;0.00;;;;;;;25.25;28.35;102730.53;5038771;28;20474;-70
2023/05/19 09:48:29;;;;;;;0.10;0.10;;;;;;;24.93;27.62;102733.59;5043697;28;20025;-69
2023/05/19 09:50:56;;;;;;;0.10;0.10;;;;;;;23.80;28.64;102737.41;5054471;28;20037;-69
2023/05/19 09:53:22;;;;;;;0.00;0.00;;;;;;;23.84;29.24;102727.50;5050984;28;20408;-70
2023/05/19 09:55:48;;;;;;;0.00;0.00;;;;;;;24.37;27.65;102740.91;5061424;28;20037;-69
2023/05/19 09:58:17;;;;;;;0.08;0.08;;;;;;;24.71;28.81;102733.00;5062960;28;20032;-69
2023/05/19 10:00:44;;;;;;;0.00;0.00;;;;;;;24.00;28.61;102733.91;5053627;28;20056;-70
2023/05/19 10:03:10;;;;;;;0.10;0.10;;;;;;;23.19;30.47;102729.84;5053270;28;20029;-69
2023/05/19 10:05:37;;;;;;;0.10;0.10;;;;;;;24.55;27.87;102725.81;5057763;28;20139;-69
2023/05/19 10:08:05;;;;;;;0.00;0.00;;;;;;;24.48;28.55;102725.28;5061014;28;20028;-69
2023/05/19 10:10:32;;;;;;;0.00;0.00;;;;;;;23.83;28.31;102722.28;5058613;28;20020;-69
2023/05/19 10:12:58;;;;;;;0.05;0.05;;;;;;;23.13;29.84;102725.41;5051666;28;20025;-69
2023/05/19 10:15:24;;;;;;;0.00;0.00;;;;;;;24.16;28.33;102728.22;5056815;28;20041;-70
2023/05/19 10:17:50;;;;;;;0.00;0.00;;;;;;;23.83;29.17;102714.03;5051254;28;20048;-70
2023/05/19 10:20:16;;;;;;;0.00;0.00;;;;;;;24.33;29.02;102714.25;5049226;28;20044;-69
2023/05/19 10:22:44;;;;;;;0.00;0.00;;;;;;;24.53;28.47;102711.53;5060181;28;20021;-69
2023/05/19 10:25:13;;;;;;;0.00;0.00;;;;;;;24.88;28.14;102702.50;5058053;28;21041;-69
2023/05/19 10:27:43;;;;;;;0.10;0.10;;;;;;;25.65;26.67;102707.63;5054839;28;20071;-68
2023/05/19 10:30:27;;;;;;;0.00;0.00;;;;;;;25.49;26.48;102704.09;5058045;28;20091;-68
2023/05/19 10:32:56;;;;;;;0.00;0.00;;;;;;;25.02;27.16;102704.41;5055737;28;20431;-70
2023/05/19 10:35:27;;;;;;;0.08;0.08;;;;;;;24.71;27.25;102694.50;5060571;28;20028;-69
2023/05/19 10:38:11;;;;;;;0.10;0.10;;;;;;;26.15;26.47;102690.88;5052857;28;20503;-69
2023/05/19 10:40:42;;;;;;;0.00;0.00;;;;;;;25.46;27.34;102682.63;5052299;28;20020;-69
2023/05/19 10:43:14;;;;;;;0.00;0.00;;;;;;;24.99;26.95;102691.22;5059942;28;20029;-68
2023/05/19 10:45:48;;;;;;;0.00;0.00;;;;;;;25.63;27.48;102677.59;5057791;28;20037;-69
2023/05/19 10:48:15;;;;;;;0.00;0.00;;;;;;;25.67;26.79;102677.88;5061095;28;20443;-69
2023/05/19 10:50:44;;;;;;;0.00;0.00;;;;;;;25.36;25.93;102688.13;5061805;28;20028;-69
2023/05/19 10:53:21;;;;;;;0.00;0.00;;;;;;;25.26;25.41;102686.22;5056790;28;20037;-69
2023/05/19 10:55:57;;;;;;;0.00;0.00;;;;;;;26.68;24.36;102675.31;5068598;28;20048;-69
2023/05/19 10:58:48;;;;;;;0.00;0.00;;;;;;;27.19;24.70;102675.69;5053056;28;20472;-69
2023/05/19 11:01:19;;;;;;;0.00;0.00;;;;;;;26.64;23.88;102677.84;5055794;28;20051;-69
2023/05/19 11:03:45;;;;;;;0.00;0.00;;;;;;;27.00;23.67;102683.09;5054633;28;20123;-70
2023/05/19 11:06:23;;;;;;;0.00;0.00;;;;;;;26.48;25.16;102675.47;5055370;28;20091;-69
2023/05/19 11:09:11;;;;;;;0.00;0.00;;;;;;;26.54;24.88;102668.81;5055931;28;20083;-68
2023/05/19 11:11:48;;;;;;;0.00;0.00;;;;;;;27.82;24.09;102671.66;5057549;28;20028;-69
2023/05/19 11:14:26;;;;;;;0.00;0.00;;;;;;;24.88;26.21;102675.84;5055464;28;20039;-70
2023/05/19 11:16:55;;;;;;;0.00;0.00;;;;;;;26.07;25.41;102673.00;5055742;28;20485;-69
2023/05/19 11:19:34;;;;;;;0.00;0.00;;;;;;;27.51;23.17;102670.41;5054820;28;20025;-69
2023/05/19 11:22:12;;;;;;;0.00;0.00;;;;;;;27.58;24.35;102670.88;5057808;28;20032;-70
2023/05/19 11:24:43;;;;;;;0.00;0.00;;;;;;;26.81;24.54;102672.75;5058272;28;20032;-70
2023/05/19 11:27:27;;;;;;;0.00;0.00;;;;;;;26.50;25.76;102663.06;5049456;28;20478;-68